createdAt,value
2023-05-14T00:00:05.390Z,14.40
2023-05-14T00:02:55.066Z,14.32
2023-05-14T00:05:23.427Z,14.28
2023-05-14T00:07:51.442Z,14.25
2023-05-14T00:10:22.174Z,14.21
2023-05-14T00:12:52.078Z,14.16
2023-05-14T00:15:20.202Z,14.10
2023-05-14T00:17:48.359Z,14.07
2023-05-14T00:20:16.446Z,14.01
2023-05-14T00:22:44.635Z,13.98
2023-05-14T00:25:12.623Z,13.95
2023-05-14T00:27:40.903Z,13.93
2023-05-14T00:30:09.567Z,13.91
2023-05-14T00:32:37.767Z,13.87
2023-05-14T00:35:06.454Z,13.84
2023-05-14T00:37:34.427Z,13.82
2023-05-14T00:40:02.384Z,13.79
2023-05-14T00:42:30.349Z,13.77
2023-05-14T00:44:58.317Z,13.74
2023-05-14T00:47:27.288Z,13.71
2023-05-14T00:49:55.530Z,13.67
2023-05-14T00:52:23.654Z,13.62
2023-05-14T00:54:52.298Z,13.58
2023-05-14T00:57:22.111Z,13.54
2023-05-14T00:59:50.890Z,13.50
2023-05-14T01:02:19.140Z,13.47
2023-05-14T01:04:47.216Z,13.45
2023-05-14T01:07:33.276Z,13.43
2023-05-14T01:10:11.976Z,13.39
2023-05-14T01:12:48.889Z,13.36
2023-05-14T01:15:25.751Z,13.33
2023-05-14T01:18:00.312Z,13.30
2023-05-14T01:20:28.541Z,13.26
2023-05-14T01:22:56.511Z,13.24
2023-05-14T01:25:24.744Z,13.21
2023-05-14T01:27:58.405Z,13.19
2023-05-14T01:30:50.838Z,13.16
2023-05-14T01:33:21.144Z,13.13
2023-05-14T01:35:50.962Z,13.13
2023-05-14T01:38:20.814Z,13.14
2023-05-14T01:40:50.797Z,13.16
2023-05-14T01:43:19.807Z,13.17
2023-05-14T01:45:47.958Z,13.18
2023-05-14T01:48:16.235Z,13.18
2023-05-14T01:50:44.197Z,13.18
2023-05-14T01:53:12.279Z,13.17
2023-05-14T01:55:40.328Z,13.16
2023-05-14T01:58:08.609Z,13.13
2023-05-14T02:00:36.729Z,13.11
2023-05-14T02:03:04.664Z,13.09
2023-05-14T02:05:32.719Z,13.07
2023-05-14T02:08:00.694Z,13.04
2023-05-14T02:10:28.659Z,13.03
2023-05-14T02:12:56.646Z,13.01
2023-05-14T02:15:24.901Z,12.98
2023-05-14T02:17:53.134Z,12.94
2023-05-14T02:20:21.336Z,12.90
2023-05-14T02:22:49.531Z,12.86
2023-05-14T02:25:17.695Z,12.83
2023-05-14T02:27:45.979Z,12.80
2023-05-14T02:30:14.345Z,12.78
2023-05-14T02:32:42.535Z,12.75
2023-05-14T02:35:10.714Z,12.73
2023-05-14T02:37:38.697Z,12.71
2023-05-14T02:40:07.397Z,12.70
2023-05-14T02:42:35.768Z,12.67
2023-05-14T02:45:04.305Z,12.66
2023-05-14T02:47:32.336Z,12.64
2023-05-14T02:50:00.462Z,12.62
2023-05-14T02:52:28.541Z,12.61
2023-05-14T02:54:56.688Z,12.59
2023-05-14T02:57:24.662Z,12.58
2023-05-14T02:59:52.801Z,12.57
2023-05-14T03:02:21.492Z,12.57
2023-05-14T03:04:50.715Z,12.57
2023-05-14T03:07:18.782Z,12.57
2023-05-14T03:09:46.862Z,12.58
2023-05-14T03:12:14.929Z,12.58
2023-05-14T03:14:43.010Z,12.59
2023-05-14T03:17:11.019Z,12.62
2023-05-14T03:19:39.034Z,12.64
2023-05-14T03:22:08.809Z,12.65
2023-05-14T03:24:39.241Z,12.66
2023-05-14T03:27:07.343Z,12.66
2023-05-14T03:29:35.723Z,12.67
2023-05-14T03:32:04.049Z,12.67
2023-05-14T03:34:32.304Z,12.67
2023-05-14T03:37:00.459Z,12.67
2023-05-14T03:39:28.398Z,12.67
2023-05-14T03:41:58.959Z,12.67
2023-05-14T03:44:27.292Z,12.69
2023-05-14T03:46:55.996Z,12.72
2023-05-14T03:49:24.072Z,12.75
2023-05-14T03:51:52.048Z,12.79
2023-05-14T03:54:20.108Z,12.82
2023-05-14T03:56:48.082Z,12.88
2023-05-14T03:59:16.045Z,12.96
2023-05-14T04:01:44.731Z,13.03
2023-05-14T04:04:12.853Z,13.12
2023-05-14T04:06:41.075Z,13.25
2023-05-14T04:09:11.011Z,13.55
2023-05-14T04:11:39.067Z,14.18
2023-05-14T04:14:07.179Z,14.96
2023-05-14T04:16:35.228Z,15.81
2023-05-14T04:19:05.013Z,16.71
2023-05-14T04:21:33.107Z,17.59
2023-05-14T04:24:01.110Z,18.43
2023-05-14T04:26:29.126Z,19.25
2023-05-14T04:28:57.089Z,20.03
2023-05-14T04:31:25.082Z,20.76
2023-05-14T04:33:53.127Z,21.47
2023-05-14T04:36:21.108Z,22.15
2023-05-14T04:38:49.066Z,22.78
2023-05-14T04:41:17.129Z,23.30
2023-05-14T04:43:45.021Z,23.82
2023-05-14T04:46:14.060Z,24.26
2023-05-14T04:48:42.261Z,24.67
2023-05-14T04:51:10.229Z,25.03
2023-05-14T04:53:38.200Z,25.37
2023-05-14T04:56:06.780Z,25.69
2023-05-14T04:58:35.266Z,26.00
2023-05-14T05:01:06.031Z,26.28
2023-05-14T05:03:34.120Z,26.56
2023-05-14T05:06:02.242Z,26.86
2023-05-14T05:08:31.027Z,27.18
2023-05-14T05:10:59.048Z,27.49
2023-05-14T05:13:26.981Z,27.65
2023-05-14T05:15:54.999Z,27.74
2023-05-14T05:18:22.987Z,28.03
2023-05-14T05:20:50.940Z,28.36
2023-05-14T05:23:18.953Z,28.70
2023-05-14T05:25:47.027Z,29.02
2023-05-14T05:28:15.121Z,29.29
2023-05-14T05:30:45.181Z,29.52
2023-05-14T05:33:14.364Z,29.75
2023-05-14T05:35:43.488Z,30.00
2023-05-14T05:38:11.557Z,30.24
2023-05-14T05:40:39.626Z,30.46
2023-05-14T05:43:07.594Z,30.60
2023-05-14T05:45:35.531Z,30.68
2023-05-14T05:48:03.753Z,30.66
2023-05-14T05:50:32.330Z,30.50
2023-05-14T05:53:00.504Z,30.19
2023-05-14T05:55:29.301Z,29.81
2023-05-14T05:57:57.330Z,29.72
2023-05-14T06:00:25.975Z,29.87
2023-05-14T06:02:54.351Z,30.00
2023-05-14T06:05:22.396Z,30.04
2023-05-14T06:07:50.658Z,30.09
2023-05-14T06:10:19.461Z,30.10
2023-05-14T06:12:47.416Z,30.19
2023-05-14T06:15:15.654Z,30.36
2023-05-14T06:17:43.653Z,30.55
2023-05-14T06:20:12.464Z,30.73
2023-05-14T06:22:40.619Z,30.93
2023-05-14T06:25:09.349Z,31.00
2023-05-14T06:27:37.371Z,30.96
2023-05-14T06:30:07.170Z,30.89
2023-05-14T06:32:35.286Z,30.78
2023-05-14T06:35:03.421Z,30.52
2023-05-14T06:37:31.493Z,30.27
2023-05-14T06:40:01.600Z,30.00
2023-05-14T06:42:29.631Z,29.61
2023-05-14T06:44:59.391Z,29.23
2023-05-14T06:47:27.381Z,28.92
2023-05-14T06:49:56.757Z,28.68
2023-05-14T06:52:25.818Z,28.49
2023-05-14T06:54:53.823Z,28.37
2023-05-14T06:57:22.264Z,28.24
2023-05-14T06:59:50.388Z,28.14
2023-05-14T07:02:18.443Z,28.05
2023-05-14T07:04:46.704Z,27.96
2023-05-14T07:07:17.960Z,27.97
2023-05-14T07:09:46.089Z,27.84
2023-05-14T07:12:14.109Z,27.71
2023-05-14T07:14:42.131Z,27.64
2023-05-14T07:17:10.102Z,27.52
2023-05-14T07:19:38.210Z,27.32
2023-05-14T07:22:06.389Z,27.14
2023-05-14T07:24:34.470Z,26.96
2023-05-14T07:27:02.558Z,26.72
2023-05-14T07:29:30.951Z,26.54
2023-05-14T07:31:58.976Z,26.35
2023-05-14T07:34:26.950Z,26.18
2023-05-14T07:36:55.233Z,26.11
2023-05-14T07:39:23.184Z,26.11
2023-05-14T07:41:51.409Z,26.12
2023-05-14T07:44:19.329Z,26.07
2023-05-14T07:46:47.911Z,26.04
2023-05-14T07:49:15.978Z,25.98
2023-05-14T07:51:43.958Z,25.92
2023-05-14T07:54:12.022Z,25.90
2023-05-14T07:56:40.197Z,25.81
2023-05-14T07:59:08.379Z,25.78
2023-05-14T08:01:39.195Z,25.74
2023-05-14T08:04:08.203Z,25.72
2023-05-14T08:06:37.487Z,25.71
2023-05-14T08:09:05.556Z,25.63
2023-05-14T08:11:33.550Z,25.55
2023-05-14T08:14:01.666Z,25.44
2023-05-14T08:16:29.714Z,25.35
2023-05-14T08:18:57.768Z,25.25
2023-05-14T08:21:26.011Z,25.16
2023-05-14T08:23:54.088Z,25.11
2023-05-14T08:26:22.159Z,25.12
2023-05-14T08:28:50.129Z,25.10
2023-05-14T08:31:18.142Z,25.11
2023-05-14T08:33:46.285Z,25.12
2023-05-14T08:36:14.299Z,25.12
2023-05-14T08:38:42.719Z,25.12
2023-05-14T08:41:11.852Z,25.15
2023-05-14T08:43:53.193Z,25.21
2023-05-14T08:46:24.252Z,25.30
2023-05-14T08:49:00.519Z,25.46
2023-05-14T08:51:28.614Z,25.66
2023-05-14T08:53:59.303Z,25.88
2023-05-14T08:56:27.613Z,26.11
2023-05-14T08:58:55.714Z,26.36
2023-05-14T09:01:24.165Z,26.51
2023-05-14T09:03:54.091Z,26.67
2023-05-14T09:06:22.989Z,26.86
2023-05-14T09:08:50.996Z,26.96
2023-05-14T09:11:19.069Z,27.08
2023-05-14T09:13:47.035Z,27.13
2023-05-14T09:16:16.625Z,27.07
2023-05-14T09:18:45.835Z,27.18
2023-05-14T09:21:18.300Z,27.32
2023-05-14T09:23:47.876Z,27.43
2023-05-14T09:26:18.825Z,27.58
2023-05-14T09:28:47.128Z,27.70
2023-05-14T09:31:15.336Z,27.74
2023-05-14T09:33:44.090Z,27.79
2023-05-14T09:36:12.024Z,27.87
2023-05-14T09:38:40.023Z,27.87
2023-05-14T09:41:08.092Z,27.92
2023-05-14T09:43:36.269Z,27.83
2023-05-14T09:46:04.548Z,27.69
2023-05-14T09:48:32.551Z,27.51
2023-05-14T09:51:01.414Z,27.38
2023-05-14T09:53:30.786Z,27.16
2023-05-14T09:55:58.886Z,27.08
2023-05-14T09:58:26.950Z,27.05
2023-05-14T10:00:57.469Z,27.08
2023-05-14T10:03:29.558Z,27.17
2023-05-14T10:06:01.431Z,27.26
2023-05-14T10:08:34.569Z,27.14
2023-05-14T10:11:08.646Z,27.08
2023-05-14T10:13:40.050Z,27.08
2023-05-14T10:16:28.705Z,26.96
2023-05-14T10:19:05.231Z,26.84
2023-05-14T10:21:36.832Z,26.81
2023-05-14T10:24:06.288Z,26.74
2023-05-14T10:26:39.588Z,26.78
2023-05-14T10:29:10.318Z,26.74
2023-05-14T10:31:48.341Z,26.76
2023-05-14T10:34:38.051Z,26.73
2023-05-14T10:37:21.154Z,26.65
2023-05-14T10:39:58.490Z,26.35
2023-05-14T10:42:29.045Z,26.33
2023-05-14T10:45:01.752Z,26.34
2023-05-14T10:47:31.302Z,26.27
2023-05-14T10:50:02.234Z,26.19
2023-05-14T10:52:30.259Z,26.12
2023-05-14T10:55:02.904Z,26.01
2023-05-14T10:57:32.506Z,25.92
2023-05-14T11:00:01.856Z,25.91
2023-05-14T11:02:36.978Z,25.91
2023-05-14T11:05:08.731Z,25.87
2023-05-14T11:07:39.398Z,25.86
2023-05-14T11:10:08.438Z,25.77
2023-05-14T11:12:38.702Z,25.75
2023-05-14T11:15:11.881Z,25.74
2023-05-14T11:17:42.402Z,25.81
2023-05-14T11:20:11.554Z,25.84
2023-05-14T11:22:41.411Z,25.84
2023-05-14T11:25:10.600Z,25.73
2023-05-14T11:27:39.558Z,25.65
2023-05-14T11:30:15.698Z,25.59
2023-05-14T11:32:49.136Z,25.47
2023-05-14T11:35:18.514Z,25.36
2023-05-14T11:37:52.700Z,25.17
2023-05-14T11:40:20.835Z,25.15
2023-05-14T11:42:52.640Z,25.19
2023-05-14T11:45:27.571Z,25.23
2023-05-14T11:47:56.169Z,25.29
2023-05-14T11:50:24.483Z,25.28
2023-05-14T11:52:56.842Z,25.25
2023-05-14T11:55:25.129Z,25.21
2023-05-14T11:57:53.197Z,25.19
2023-05-14T12:00:24.354Z,25.14
2023-05-14T12:02:52.860Z,25.02
2023-05-14T12:05:21.097Z,24.91
2023-05-14T12:07:49.063Z,24.87
2023-05-14T12:10:17.137Z,24.88
2023-05-14T12:12:47.458Z,24.87
2023-05-14T12:15:20.635Z,24.80
2023-05-14T12:17:52.152Z,24.81
2023-05-14T12:20:20.630Z,24.85
2023-05-14T12:22:48.853Z,24.92
2023-05-14T12:25:17.227Z,24.98
2023-05-14T12:27:45.710Z,25.04
2023-05-14T12:32:46.186Z,25.14
2023-05-14T12:35:14.426Z,25.16
2023-05-14T12:37:43.279Z,25.17
2023-05-14T12:40:12.241Z,25.16
2023-05-14T12:42:40.399Z,25.18
2023-05-14T12:45:09.046Z,25.15
2023-05-14T12:47:37.481Z,25.08
2023-05-14T12:50:06.641Z,25.07
2023-05-14T12:52:39.295Z,25.05
2023-05-14T12:55:09.521Z,25.03
2023-05-14T12:57:39.464Z,25.04
2023-05-14T13:00:13.875Z,25.02
2023-05-14T13:02:43.700Z,25.00
2023-05-14T13:05:12.792Z,24.97
2023-05-14T13:07:40.949Z,24.94
2023-05-14T13:10:10.046Z,24.87
2023-05-14T13:12:38.882Z,24.80
2023-05-14T13:15:07.690Z,24.71
2023-05-14T13:17:36.657Z,24.57
2023-05-14T13:20:05.341Z,24.35
2023-05-14T13:22:33.880Z,24.22
2023-05-14T13:25:01.901Z,24.11
2023-05-14T13:27:30.600Z,24.05
2023-05-14T13:29:58.700Z,24.00
2023-05-14T13:32:26.638Z,23.97
2023-05-14T13:34:54.643Z,23.97
2023-05-14T13:37:23.136Z,23.98
2023-05-14T13:39:51.653Z,23.97
2023-05-14T13:42:19.772Z,23.97
2023-05-14T13:44:47.852Z,23.98
2023-05-14T13:47:15.911Z,23.98
2023-05-14T13:49:43.983Z,23.98
2023-05-14T13:52:11.953Z,23.99
2023-05-14T13:54:39.888Z,23.99
2023-05-14T13:57:07.890Z,24.00
2023-05-14T13:59:36.162Z,24.03
2023-05-14T14:02:04.963Z,24.05
2023-05-14T14:04:33.437Z,24.08
2023-05-14T14:07:01.511Z,24.12
2023-05-14T14:09:29.496Z,24.17
2023-05-14T14:11:57.865Z,24.19
2023-05-14T14:14:25.918Z,24.18
2023-05-14T14:16:54.015Z,24.17
2023-05-14T14:19:21.960Z,24.14
2023-05-14T14:24:18.816Z,24.01
2023-05-14T14:26:46.740Z,23.97
2023-05-14T14:29:14.749Z,23.88
2023-05-14T14:31:43.724Z,23.80
2023-05-14T14:34:11.926Z,23.76
2023-05-14T14:36:39.984Z,23.74
2023-05-14T14:39:07.896Z,23.76
2023-05-14T14:41:35.929Z,23.78
2023-05-14T14:44:04.029Z,23.76
2023-05-14T14:46:32.737Z,23.76
2023-05-14T14:49:00.834Z,23.75
2023-05-14T14:51:30.373Z,23.72
2023-05-14T14:53:58.425Z,23.70
2023-05-14T14:56:27.363Z,23.70
2023-05-14T14:58:55.335Z,23.69
2023-05-14T15:01:23.335Z,23.70
2023-05-14T15:03:51.348Z,23.69
2023-05-14T15:06:19.400Z,23.69
2023-05-14T15:08:47.460Z,23.64
2023-05-14T15:11:15.440Z,23.59
2023-05-14T15:13:43.511Z,23.54
2023-05-14T15:16:12.617Z,23.51
2023-05-14T15:18:40.806Z,23.49
2023-05-14T15:21:08.813Z,23.48
2023-05-14T15:23:36.911Z,23.50
2023-05-14T15:26:05.055Z,23.52
2023-05-14T15:28:33.559Z,23.56
2023-05-14T15:31:02.759Z,23.58
2023-05-14T15:33:30.834Z,23.61
2023-05-14T15:35:59.003Z,23.65
2023-05-14T15:38:27.074Z,23.70
2023-05-14T15:40:55.141Z,23.73
2023-05-14T15:43:23.106Z,23.78
2023-05-14T15:45:51.047Z,23.81
2023-05-14T15:48:19.050Z,23.83
2023-05-14T15:50:49.681Z,23.83
2023-05-14T15:53:18.060Z,23.85
2023-05-14T15:55:48.375Z,23.87
2023-05-14T15:58:16.347Z,23.85
2023-05-14T16:00:44.412Z,23.82
2023-05-14T16:03:12.532Z,23.81
2023-05-14T16:05:42.848Z,23.79
2023-05-14T16:08:11.301Z,23.77
2023-05-14T16:10:39.262Z,23.77
2023-05-14T16:13:07.426Z,23.77
2023-05-14T16:15:35.395Z,23.76
2023-05-14T16:18:03.525Z,23.72
2023-05-14T16:20:31.539Z,23.70
2023-05-14T16:22:59.435Z,23.70
2023-05-14T16:25:27.483Z,23.70
2023-05-14T16:27:55.541Z,23.69
2023-05-14T16:30:23.935Z,23.71
2023-05-14T16:32:52.335Z,23.70
2023-05-14T16:35:20.700Z,23.68
2023-05-14T16:37:48.753Z,23.68
2023-05-14T16:40:16.792Z,23.68
2023-05-14T16:42:46.054Z,23.67
2023-05-14T16:45:15.922Z,23.66
2023-05-14T16:47:43.925Z,23.64
2023-05-14T16:50:12.574Z,23.57
2023-05-14T16:52:40.756Z,23.49
2023-05-14T16:55:09.447Z,23.40
2023-05-14T16:57:37.550Z,23.30
2023-05-14T17:00:06.700Z,23.20
2023-05-14T17:02:34.783Z,23.11
2023-05-14T17:05:04.152Z,23.01
2023-05-14T17:07:32.148Z,22.88
2023-05-14T17:10:00.970Z,22.70
2023-05-14T17:12:29.192Z,22.59
2023-05-14T17:14:57.130Z,22.48
2023-05-14T17:17:25.198Z,22.41
2023-05-14T17:19:53.206Z,22.35
2023-05-14T17:22:21.271Z,22.30
2023-05-14T17:24:49.338Z,22.24
2023-05-14T17:27:17.268Z,22.17
2023-05-14T17:29:45.198Z,22.08
2023-05-14T17:32:13.530Z,22.03
2023-05-14T17:34:41.727Z,21.97
2023-05-14T17:37:09.802Z,21.91
2023-05-14T17:39:37.829Z,21.87
2023-05-14T17:42:07.119Z,21.83
2023-05-14T17:44:36.481Z,21.79
2023-05-14T17:47:04.946Z,21.75
2023-05-14T17:49:32.973Z,21.70
2023-05-14T17:52:01.449Z,21.66
2023-05-14T17:54:29.577Z,21.64
2023-05-14T17:56:57.643Z,21.62
2023-05-14T17:59:25.713Z,21.56
2023-05-14T18:01:53.748Z,21.53
2023-05-14T18:04:21.963Z,21.46
2023-05-14T18:06:49.959Z,21.37
2023-05-14T18:09:18.009Z,21.29
2023-05-14T18:11:45.977Z,21.20
2023-05-14T18:14:14.224Z,21.13
2023-05-14T18:16:42.913Z,21.04
2023-05-14T18:19:11.684Z,20.95
2023-05-14T18:21:39.895Z,20.85
2023-05-14T18:24:08.661Z,20.79
2023-05-14T18:26:36.752Z,20.71
2023-05-14T18:29:05.033Z,20.64
2023-05-14T18:31:33.097Z,20.55
2023-05-14T18:34:01.268Z,20.51
2023-05-14T18:36:29.317Z,20.46
2023-05-14T18:38:57.408Z,20.42
2023-05-14T18:41:25.430Z,20.35
2023-05-14T18:43:53.452Z,20.29
2023-05-14T18:46:21.607Z,20.25
2023-05-14T18:48:50.715Z,20.20
2023-05-14T18:51:18.787Z,20.17
2023-05-14T18:53:46.716Z,20.15
2023-05-14T18:56:14.756Z,20.14
2023-05-14T18:58:42.796Z,20.11
2023-05-14T19:01:10.919Z,20.08
2023-05-14T19:03:40.328Z,20.04
2023-05-14T19:06:08.546Z,20.01
2023-05-14T19:08:36.613Z,19.98
2023-05-14T19:11:04.705Z,19.96
2023-05-14T19:13:32.750Z,19.94
2023-05-14T19:16:00.924Z,19.94
2023-05-14T19:18:28.991Z,19.94
2023-05-14T19:20:57.325Z,19.95
2023-05-14T19:23:25.548Z,19.95
2023-05-14T19:25:53.613Z,19.95
2023-05-14T19:28:21.689Z,19.94
2023-05-14T19:30:51.321Z,19.94
2023-05-14T19:33:19.772Z,19.94
2023-05-14T19:35:47.837Z,19.94
2023-05-14T19:38:16.285Z,19.95
2023-05-14T19:40:45.124Z,19.96
2023-05-14T19:43:13.697Z,19.95
2023-05-14T19:45:42.878Z,19.93
2023-05-14T19:48:12.642Z,19.89
2023-05-14T19:50:41.682Z,19.87
2023-05-14T19:53:09.756Z,19.83
2023-05-14T19:55:38.002Z,19.78
2023-05-14T19:58:06.321Z,19.75
2023-05-14T20:00:34.501Z,19.72
2023-05-14T20:03:03.525Z,19.72
2023-05-14T20:05:34.513Z,19.70
2023-05-14T20:08:03.938Z,19.69
2023-05-14T20:10:32.192Z,19.67
2023-05-14T20:13:00.198Z,19.66
2023-05-14T20:15:28.331Z,19.64
2023-05-14T20:17:56.478Z,19.62
2023-05-14T20:20:24.806Z,19.58
2023-05-14T20:22:53.758Z,19.55
2023-05-14T20:25:22.039Z,19.52
2023-05-14T20:27:50.420Z,19.50
2023-05-14T20:30:19.005Z,19.49
2023-05-14T20:32:47.017Z,19.49
2023-05-14T20:35:15.249Z,19.51
2023-05-14T20:37:43.326Z,19.52
2023-05-14T20:40:14.684Z,19.53
2023-05-14T20:42:42.844Z,19.53
2023-05-14T20:45:11.221Z,19.55
2023-05-14T20:47:40.413Z,19.56
2023-05-14T20:50:08.955Z,19.56
2023-05-14T20:52:37.075Z,19.56
2023-05-14T20:55:07.689Z,19.55
2023-05-14T20:57:35.878Z,19.55
2023-05-14T21:00:08.231Z,19.53
2023-05-14T21:02:36.584Z,19.50
2023-05-14T21:05:05.388Z,19.48
2023-05-14T21:07:33.692Z,19.48
2023-05-14T21:10:02.059Z,19.48
2023-05-14T21:12:30.038Z,19.47
2023-05-14T21:14:58.009Z,19.47
2023-05-14T21:17:26.112Z,19.45
2023-05-14T21:19:54.250Z,19.43
2023-05-14T21:22:22.710Z,19.41
2023-05-14T21:24:51.526Z,19.37
2023-05-14T21:27:19.549Z,19.37
2023-05-14T21:29:47.754Z,19.36
2023-05-14T21:32:15.919Z,19.33
2023-05-14T21:34:43.902Z,19.31
2023-05-14T21:37:12.120Z,19.29
2023-05-14T21:39:40.054Z,19.25
2023-05-14T21:42:08.586Z,19.23
2023-05-14T21:44:36.686Z,19.19
2023-05-14T21:47:05.750Z,19.15
2023-05-14T21:49:33.858Z,19.10
2023-05-14T21:52:02.022Z,19.08
2023-05-14T21:54:30.209Z,19.04
2023-05-14T21:56:58.262Z,19.00
2023-05-14T21:59:26.147Z,18.97
2023-05-14T22:04:24.931Z,18.91
2023-05-14T22:06:53.002Z,18.88
2023-05-14T22:09:20.969Z,18.87
2023-05-14T22:11:48.943Z,18.87
2023-05-14T22:14:17.428Z,18.88
2023-05-14T22:16:45.641Z,18.88
2023-05-14T22:19:15.979Z,18.88
2023-05-14T22:21:44.136Z,18.88
2023-05-14T22:24:12.262Z,18.86
2023-05-14T22:26:40.661Z,18.86
2023-05-14T22:29:08.648Z,18.85
2023-05-14T22:31:36.835Z,18.86
2023-05-14T22:34:04.847Z,18.87
2023-05-14T22:36:32.861Z,18.88
2023-05-14T22:39:01.104Z,18.89
2023-05-14T22:41:29.480Z,18.89
2023-05-14T22:43:57.451Z,18.92
2023-05-14T22:46:25.659Z,18.94
2023-05-14T22:48:53.792Z,18.94
2023-05-14T22:51:21.713Z,18.93
2023-05-14T22:53:49.727Z,18.92
2023-05-14T22:56:17.892Z,18.93
2023-05-14T22:58:45.961Z,18.92
2023-05-14T23:01:14.001Z,18.88
2023-05-14T23:03:42.190Z,18.85
2023-05-14T23:06:10.481Z,18.81
2023-05-14T23:08:38.424Z,18.78
2023-05-14T23:11:06.518Z,18.75
2023-05-14T23:13:34.594Z,18.72
2023-05-14T23:16:02.922Z,18.71
2023-05-14T23:18:31.165Z,18.71
2023-05-14T23:20:59.308Z,18.68
2023-05-14T23:23:27.277Z,18.68
2023-05-14T23:25:56.164Z,18.67
2023-05-14T23:28:24.240Z,18.66
2023-05-14T23:30:52.174Z,18.62
2023-05-14T23:33:20.115Z,18.61
2023-05-14T23:35:48.532Z,18.59
2023-05-14T23:38:16.828Z,18.57
2023-05-14T23:40:44.903Z,18.55
2023-05-14T23:43:13.074Z,18.52
2023-05-14T23:45:41.059Z,18.50
2023-05-14T23:48:09.333Z,18.47
2023-05-14T23:50:38.302Z,18.46
2023-05-14T23:53:06.377Z,18.41
2023-05-14T23:55:34.338Z,18.38
2023-05-14T23:58:02.310Z,18.32
